Detall de PIREP

Printer-friendly versionPDF version

[2015/07/03 18:42:00]
Flight IATA:CT0001
Pilot Number:042
Company ICAO:CAT
Aircraft Type:B738/F
PAX:25
Departing Airport: LEPA
Destination Airport: LEBL
Alternate Airport:LEGE
Online: VATSIM
Route:ESPOR NEPAL
Flight Level:F190
No Slew and time accel
No pause
Crash detect
Detect pilot in Cockpit between each 30 and 45 minutes
18:42 Zero fuel Weight: 121805 Lbs, Fuel Weight: 30385 Lbs
18:42 VATSIM:LEPA 031830Z 08011KT CAVOK 32/14 Q1021 NOSIG
18:42 VATSIM:LEBL 031830Z 06006KT 030V100 CAVOK 28/18 Q1022 NOSIG
18:45 Parking Brakes off
18:53 Take-off
18:53 Take off Weight: 151294 Lbs
18:53 Wind: 080º @ 011 Knots Heading: 237º
18:53 POS N39º 33´ 06´´ E002º 43´ 15´´
18:53 Flaps:4 at 162 Knots
18:53 Gear Up: 162 Knots
18:53 Flaps:3 at 161 Knots
18:54 Flaps:2 at 204 Knots
18:54 Flaps:1 at 213 Knots
18:54 Flaps:0 at 231 Knots
19:01 TOC
19:01 Fuel Weight: 27380 Lb
19:05TOD
19:05 Fuel Weight: 26945 Lb
19:08 Wind:222º@010 Knots Heading: 340º Ground Speed: 355 Knots Altitude 15298 ft
19:15 Flaps:1 at 229 Knots
19:15 Flaps:2 at 230 Knots
19:16 Flaps:3 at 218 Knots
19:18 Gear Down: 179 Knots
19:18 Flaps:4 at 174 Knots
19:18 Flaps:5 at 173 Knots
19:18 Flaps:6 at 170 Knots
19:18 Flaps:7 at 163 Knots
19:19 Flaps:8 at 156 Knots
19:22 TouchDown:Rate -103 ft/min Speed: 138 Knots
19:22 VATSIM:LEBL 031900Z 06006KT CAVOK 27/19 Q1022 NOSIG
19:22 Land
19:22 Wind:060º@006 Knots
19:22 Heading: 244º
19:22 Flight Duration: 00:29
19:22 Landing Weight: 147884 Lbs
19:22 POS N41º 17´ 07´´ E002º 04´ 58´´
19:27 Parking brakes on
19:27 Block to Block Duration: 00:42
19:27 Final Fuel: 25509 Lbls
19:27 Spent Fuel: 4876 Lbls
19:27 Flight Length: 147 NM
19:27 TOD Land Length: 77 NM

Exportar CSV

Powered by Drupal - Modified by Danger4k